createdAt,value
2019-02-07T00:01:42.426Z,8.97
2019-02-07T00:04:09.950Z,9.27
2019-02-07T00:06:37.471Z,7.97
2019-02-07T00:09:08.361Z,8.03
2019-02-07T00:11:35.850Z,7.40
2019-02-07T00:14:03.790Z,9.07
2019-02-07T00:16:31.372Z,8.57
2019-02-07T00:18:58.806Z,6.93
2019-02-07T00:21:26.290Z,5.57
2019-02-07T00:23:53.705Z,9.20
2019-02-07T00:26:21.131Z,8.13
2019-02-07T00:28:48.525Z,9.07
2019-02-07T00:31:16.336Z,8.50
2019-02-07T00:33:43.826Z,9.20
2019-02-07T00:36:11.660Z,8.60
2019-02-07T00:38:39.151Z,7.53
2019-02-07T00:41:06.685Z,7.27
2019-02-07T00:43:34.104Z,8.37
2019-02-07T00:46:01.535Z,9.13
2019-02-07T00:48:29.285Z,7.83
2019-02-07T00:50:56.731Z,8.20
2019-02-07T00:53:24.265Z,8.60
2019-02-07T00:55:51.696Z,8.37
2019-02-07T00:58:19.132Z,5.73
2019-02-07T01:00:47.140Z,7.67
2019-02-07T01:03:14.748Z,8.07
2019-02-07T01:05:42.431Z,7.93
2019-02-07T01:08:10.015Z,7.13
2019-02-07T01:10:37.430Z,7.80
2019-02-07T01:13:05.010Z,6.87
2019-02-07T01:15:32.483Z,7.40
2019-02-07T01:18:00.010Z,5.07
2019-02-07T01:20:27.410Z,6.77
2019-02-07T01:22:55.586Z,6.43
2019-02-07T01:25:23.233Z,5.87
2019-02-07T01:27:51.225Z,7.60
2019-02-07T01:30:20.221Z,7.23
2019-02-07T01:32:47.664Z,8.83
2019-02-07T01:35:15.057Z,7.20
2019-02-07T01:37:42.710Z,8.63
2019-02-07T01:40:13.010Z,8.07
2019-02-07T01:42:40.485Z,9.33
2019-02-07T01:45:13.146Z,6.70
2019-02-07T01:47:39.236Z,6.67
2019-02-07T01:50:08.750Z,7.90
2019-02-07T01:52:36.348Z,7.80
2019-02-07T01:55:04.480Z,7.43
2019-02-07T01:57:31.972Z,7.17
2019-02-07T01:59:59.374Z,8.50
2019-02-07T02:02:26.791Z,8.10
2019-02-07T02:04:54.269Z,7.03
2019-02-07T02:07:21.765Z,7.97
2019-02-07T02:09:49.165Z,9.60
2019-02-07T02:12:16.716Z,5.57
2019-02-07T02:14:44.091Z,6.17
2019-02-07T02:17:11.524Z,7.30
2019-02-07T02:19:40.718Z,5.73
2019-02-07T02:22:08.287Z,7.73
2019-02-07T02:24:35.808Z,8.13
2019-02-07T02:27:03.321Z,7.63
2019-02-07T02:29:31.200Z,6.50
2019-02-07T02:31:58.636Z,6.90
2019-02-07T02:34:26.082Z,7.70
2019-02-07T02:36:53.665Z,7.77
2019-02-07T02:39:21.065Z,6.00
2019-02-07T02:41:48.439Z,7.90
2019-02-07T02:44:15.907Z,8.67
2019-02-07T02:46:43.309Z,7.10
2019-02-07T02:49:10.976Z,6.87
2019-02-07T02:51:38.381Z,8.60
2019-02-07T02:54:05.854Z,8.17
2019-02-07T02:56:33.316Z,7.53
2019-02-07T02:59:00.720Z,5.60
2019-02-07T03:02:02.581Z,8.07
2019-02-07T03:04:58.356Z,6.57
2019-02-07T03:07:47.190Z,5.77
2019-02-07T03:10:42.950Z,6.97
2019-02-07T03:13:30.245Z,5.73
2019-02-07T03:16:06.435Z,5.27
2019-02-07T03:19:05.193Z,7.20
2019-02-07T03:21:54.885Z,6.47
2019-02-07T03:24:44.751Z,6.13
2019-02-07T03:27:37.661Z,7.53
2019-02-07T03:30:24.852Z,7.73
2019-02-07T03:33:02.608Z,5.17
2019-02-07T03:36:01.780Z,6.67
2019-02-07T03:38:41.545Z,6.27
2019-02-07T03:41:21.340Z,7.73
2019-02-07T03:44:14.340Z,6.87
2019-02-07T03:46:53.754Z,7.53
2019-02-07T03:49:39.453Z,7.93
2019-02-07T03:52:24.750Z,8.13
2019-02-07T03:55:10.349Z,7.77
2019-02-07T03:58:09.566Z,9.13
2019-02-07T04:00:52.996Z,5.90
2019-02-07T04:03:33.728Z,8.53
2019-02-07T04:06:21.066Z,7.43
2019-02-07T04:09:26.010Z,9.23
2019-02-07T04:12:22.790Z,8.63
2019-02-07T04:15:14.066Z,7.90
2019-02-07T04:18:01.085Z,7.30
2019-02-07T04:20:40.953Z,6.97
2019-02-07T04:23:27.890Z,9.23
2019-02-07T04:26:25.927Z,7.03
2019-02-07T04:29:11.451Z,6.23
2019-02-07T04:31:58.409Z,7.23
2019-02-07T04:35:00.340Z,6.17
2019-02-07T04:37:45.868Z,7.50
2019-02-07T04:40:41.632Z,4.90
2019-02-07T04:43:31.109Z,8.38
2019-02-07T04:46:26.607Z,6.47
2019-02-07T04:49:06.306Z,7.27
2019-02-07T04:52:02.505Z,5.30
2019-02-07T04:54:40.330Z,6.83
2019-02-07T04:57:27.226Z,5.33
2019-02-07T05:00:14.624Z,5.93
2019-02-07T05:02:51.585Z,6.47
2019-02-07T05:05:32.926Z,4.53
2019-02-07T05:08:20.129Z,6.90
2019-02-07T05:11:16.185Z,4.70
2019-02-07T05:14:12.259Z,6.07
2019-02-07T05:16:59.233Z,5.80
2019-02-07T05:19:52.222Z,4.20
2019-02-07T05:22:37.936Z,6.80
2019-02-07T05:25:28.661Z,4.70
2019-02-07T05:28:21.531Z,4.57
2019-02-07T05:31:23.389Z,6.63
2019-02-07T05:33:57.751Z,5.53
2019-02-07T05:36:47.205Z,7.03
2019-02-07T05:39:32.795Z,7.77
2019-02-07T05:42:12.213Z,6.83
2019-02-07T05:44:59.168Z,5.60
2019-02-07T05:47:46.170Z,6.87
2019-02-07T05:50:31.939Z,9.30
2019-02-07T05:53:18.892Z,6.47
2019-02-07T05:56:18.031Z,6.93
2019-02-07T05:59:03.345Z,8.63
2019-02-07T06:01:54.971Z,5.53
2019-02-07T06:04:57.021Z,8.10
2019-02-07T06:07:56.082Z,7.33
2019-02-07T06:10:43.001Z,8.33
2019-02-07T06:13:35.752Z,8.50
2019-02-07T06:16:40.886Z,8.03
2019-02-07T06:19:27.810Z,6.60
2019-02-07T06:22:13.710Z,7.70
2019-02-07T06:24:59.192Z,8.30
2019-02-07T06:28:04.290Z,6.27
2019-02-07T06:30:54.160Z,8.97
2019-02-07T06:33:39.951Z,7.80
2019-02-07T06:36:26.901Z,10.33
2019-02-07T06:39:12.721Z,8.17
2019-02-07T06:42:02.606Z,8.37
2019-02-07T06:45:06.228Z,6.83
2019-02-07T06:48:05.458Z,8.00
2019-02-07T06:50:52.400Z,7.27
2019-02-07T06:53:57.535Z,8.60
2019-02-07T06:56:58.279Z,8.33
2019-02-07T06:59:45.553Z,10.70
2019-02-07T07:02:35.563Z,8.80
2019-02-07T07:05:22.565Z,10.70
2019-02-07T07:08:08.180Z,9.17
2019-02-07T07:11:01.540Z,6.90
2019-02-07T07:13:51.555Z,8.27
2019-02-07T07:16:44.526Z,8.87
2019-02-07T07:19:40.685Z,7.83
2019-02-07T07:22:28.190Z,8.80
2019-02-07T07:25:08.298Z,7.80
2019-02-07T07:28:07.465Z,7.27
2019-02-07T07:30:48.515Z,8.63
2019-02-07T07:33:44.773Z,9.27
2019-02-07T07:36:31.701Z,9.33
2019-02-07T07:39:17.715Z,7.53
2019-02-07T07:42:06.500Z,7.43
2019-02-07T07:44:52.013Z,7.80
2019-02-07T07:47:48.015Z,7.90
2019-02-07T07:50:41.035Z,8.73
2019-02-07T07:53:28.010Z,8.20
2019-02-07T07:56:05.305Z,7.43
2019-02-07T07:58:58.280Z,8.47
2019-02-07T08:01:43.906Z,9.20
2019-02-07T08:04:17.230Z,7.83
2019-02-07T08:27:24.725Z,8.93
2019-02-07T08:34:42.342Z,10.77
2019-02-07T08:41:04.050Z,9.97
2019-02-07T08:47:18.591Z,8.73
2019-02-07T08:50:40.775Z,9.37
2019-02-07T08:53:53.434Z,10.83
2019-02-07T09:00:31.065Z,12.10
2019-02-07T17:27:50.458Z,1.80
2019-02-07T22:25:37.722Z,2.33
2019-02-07T22:28:07.063Z,2.50
2019-02-07T22:30:34.756Z,2.67
2019-02-07T22:33:02.258Z,2.33
2019-02-07T22:35:29.836Z,2.43
2019-02-07T22:37:57.367Z,2.30
2019-02-07T22:40:25.122Z,3.10
2019-02-07T22:42:52.686Z,2.37
2019-02-07T22:45:22.688Z,2.00
2019-02-07T22:47:50.305Z,2.50
2019-02-07T22:50:22.732Z,2.13
2019-02-07T22:52:56.763Z,2.70
2019-02-07T22:55:20.124Z,2.10
2019-02-07T22:57:47.832Z,1.80
2019-02-07T23:01:09.411Z,2.20
2019-02-07T23:03:45.240Z,2.20
2019-02-07T23:06:13.031Z,2.47
2019-02-07T23:08:40.752Z,2.20
2019-02-07T23:11:09.192Z,2.57
2019-02-07T23:13:37.052Z,1.93
2019-02-07T23:16:07.604Z,2.43
2019-02-07T23:18:36.090Z,2.70
2019-02-07T23:21:04.352Z,2.27
2019-02-07T23:23:31.912Z,2.00
2019-02-07T23:25:59.634Z,1.60
2019-02-07T23:28:27.092Z,3.20
2019-02-07T23:30:55.212Z,2.10
2019-02-07T23:33:22.773Z,2.40
2019-02-07T23:35:50.552Z,2.47
2019-02-07T23:38:18.572Z,2.53
2019-02-07T23:40:46.228Z,2.20
2019-02-07T23:43:13.914Z,2.23
2019-02-07T23:45:41.554Z,2.90
2019-02-07T23:48:09.152Z,1.97
2019-02-07T23:50:36.952Z,2.07
2019-02-07T23:53:14.069Z,2.40
2019-02-07T23:55:34.532Z,2.40
2019-02-07T23:58:02.486Z,2.63
